Time;durP1;ratioP1;P1;durP2;ratioP2;P2;SDS_P1;SDS_P2;PMS_P1;PMS_P2;Temp;Humidity;BMP_temperature;BMP_pressure;BME280_temperature;BME280_humidity;BME280_pressure;Samples;Min_cycle;Max_cycle;Signal;HPM_P1;HPM_P2
2023/09/17 00:00:37;;;;;;;5.38;4.70;;;22.60;78.90;;;;;;5013960;28;20061;-80
2023/09/17 00:03:03;;;;;;;5.75;4.63;;;22.60;79.00;;;;;;5014386;28;20032;-80
2023/09/17 00:05:31;;;;;;;3.80;3.40;;;22.60;78.00;;;;;;4996926;28;20060;-80
2023/09/17 00:07:57;;;;;;;5.72;3.95;;;22.60;79.10;;;;;;5014608;28;20045;-79
2023/09/17 00:10:23;;;;;;;8.18;6.28;;;22.60;78.30;;;;;;4998033;28;20041;-80
2023/09/17 00:12:53;;;;;;;4.25;3.20;;;22.50;77.50;;;;;;4997824;28;20066;-80
2023/09/17 00:15:19;;;;;;;6.00;4.65;;;22.40;78.30;;;;;;4997559;28;20022;-80
2023/09/17 00:17:45;;;;;;;4.30;3.33;;;22.50;78.90;;;;;;5014111;28;20090;-80
2023/09/17 00:20:12;;;;;;;3.30;3.00;;;22.60;79.30;;;;;;4980301;28;20129;-81
2023/09/17 00:22:38;;;;;;;3.67;3.38;;;22.60;79.00;;;;;;5014422;28;20030;-80
2023/09/17 00:25:05;;;;;;;2.85;2.65;;;22.70;78.40;;;;;;5013614;28;20450;-80
2023/09/17 00:27:32;;;;;;;4.75;3.53;;;22.70;79.00;;;;;;5013990;28;20463;-80
2023/09/17 00:29:57;;;;;;;4.47;3.22;;;22.70;78.50;;;;;;4996313;28;20025;-80
2023/09/17 00:32:23;;;;;;;3.90;3.15;;;22.70;79.50;;;;;;5013474;28;20040;-81
2023/09/17 00:34:49;;;;;;;4.85;3.97;;;22.70;79.10;;;;;;5013519;28;20060;-80
2023/09/17 00:37:14;;;;;;;5.60;5.03;;;22.70;79.00;;;;;;4980218;28;20332;-80
2023/09/17 00:39:40;;;;;;;4.25;3.00;;;22.40;77.90;;;;;;4996360;28;20038;-81
2023/09/17 00:42:06;;;;;;;3.67;2.90;;;22.30;79.00;;;;;;5013530;28;20486;-81
2023/09/17 00:44:32;;;;;;;3.70;3.10;;;22.40;79.60;;;;;;4995567;28;20058;-80
2023/09/17 00:47:02;;;;;;;3.08;2.30;;;22.40;79.30;;;;;;5013481;28;20038;-80
2023/09/17 00:49:28;;;;;;;6.93;3.95;;;22.40;79.90;;;;;;5013535;28;20080;-80
2023/09/17 00:51:53;;;;;;;5.72;3.85;;;22.60;79.70;;;;;;4995834;28;20041;-80
2023/09/17 00:54:23;;;;;;;3.85;3.40;;;22.50;78.30;;;;;;4995860;28;20045;-81
2023/09/17 00:56:51;;;;;;;2.58;2.38;;;22.40;79.20;;;;;;4995622;28;20050;-78
2023/09/17 00:59:17;;;;;;;3.88;3.42;;;22.40;80.00;;;;;;4995631;28;20046;-80
2023/09/17 01:01:43;;;;;;;5.18;4.68;;;22.50;80.40;;;;;;5013082;28;20470;-80
2023/09/17 01:04:11;;;;;;;3.88;3.33;;;22.40;80.60;;;;;;5012909;28;20446;-79
2023/09/17 01:06:38;;;;;;;4.43;2.80;;;22.40;81.00;;;;;;5013142;28;20034;-79
2023/09/17 01:09:05;;;;;;;4.82;3.42;;;22.40;81.20;;;;;;5013608;28;20470;-79
2023/09/17 01:11:31;;;;;;;5.18;4.20;;;22.50;81.30;;;;;;5013409;28;20594;-79
2023/09/17 01:14:10;;;;;;;3.38;2.85;;;22.60;80.70;;;;;;4995489;28;20057;-79
2023/09/17 01:16:35;;;;;;;4.97;3.28;;;22.60;80.70;;;;;;4997479;28;20030;-79
2023/09/17 01:19:03;;;;;;;4.95;4.15;;;22.70;80.80;;;;;;5012729;28;20026;-80
2023/09/17 01:21:42;;;;;;;4.32;3.13;;;22.70;80.50;;;;;;4979357;28;20042;-80
2023/09/17 01:24:08;;;;;;;5.85;5.13;;;22.60;79.90;;;;;;5013757;28;20101;-80
2023/09/17 01:26:36;;;;;;;5.32;4.63;;;22.60;79.30;;;;;;5013095;28;20065;-80
2023/09/17 01:29:04;;;;;;;6.13;5.10;;;22.40;79.30;;;;;;5013743;28;20066;-81
2023/09/17 01:31:30;;;;;;;8.60;7.05;;;22.20;79.50;;;;;;5012946;28;20128;-80
2023/09/17 01:33:56;;;;;;;7.05;6.18;;;21.90;78.80;;;;;;5013009;28;20109;-80
2023/09/17 01:36:33;;;;;;;4.18;3.10;;;21.60;80.60;;;;;;4995897;28;20037;-80
2023/09/17 01:39:11;;;;;;;5.22;4.03;;;21.50;82.00;;;;;;5012925;28;20030;-80
2023/09/17 01:41:39;;;;;;;4.00;3.28;;;21.50;82.30;;;;;;4995146;28;20045;-80
2023/09/17 01:44:07;;;;;;;9.52;7.43;;;21.50;82.40;;;;;;5012773;28;20026;-80
2023/09/17 01:46:34;;;;;;;8.68;6.28;;;21.50;81.40;;;;;;4994995;28;20030;-79
2023/09/17 01:49:01;;;;;;;6.07;4.78;;;21.20;82.70;;;;;;4995162;28;20037;-80
2023/09/17 01:51:29;;;;;;;7.80;6.10;;;21.10;83.20;;;;;;4996947;28;20061;-80
2023/09/17 01:53:56;;;;;;;6.57;5.05;;;21.10;83.30;;;;;;5016752;28;20033;-80
2023/09/17 01:56:21;;;;;;;11.82;7.82;;;21.10;83.90;;;;;;4998742;28;20405;-80
2023/09/17 01:58:47;;;;;;;6.97;5.85;;;21.10;83.30;;;;;;5016207;28;20053;-80
2023/09/17 02:01:13;;;;;;;7.25;5.20;;;21.00;83.40;;;;;;4999379;28;20060;-80
2023/09/17 02:03:39;;;;;;;7.95;6.22;;;20.90;83.60;;;;;;5016380;28;20160;-80
2023/09/17 02:06:05;;;;;;;5.18;4.60;;;20.80;83.20;;;;;;5016333;28;20113;-80
2023/09/17 02:08:31;;;;;;;4.88;4.38;;;20.80;83.50;;;;;;5016523;28;20026;-80
2023/09/17 02:10:56;;;;;;;4.72;2.65;;;20.80;84.20;;;;;;4998670;28;20025;-80
2023/09/17 02:13:22;;;;;;;4.13;3.72;;;20.90;84.50;;;;;;4998315;28;20034;-80
2023/09/17 02:15:48;;;;;;;4.53;3.88;;;21.10;84.30;;;;;;4998353;28;20502;-80
2023/09/17 02:18:14;;;;;;;4.28;3.88;;;21.20;83.50;;;;;;5016131;28;20034;-79
2023/09/17 02:20:40;;;;;;;6.63;4.93;;;21.30;83.10;;;;;;5015991;28;20037;-79
2023/09/17 02:23:06;;;;;;;8.50;6.00;;;21.30;82.90;;;;;;5016205;28;20160;-79
2023/09/17 02:25:32;;;;;;;6.82;5.85;;;21.20;82.50;;;;;;5015884;28;20033;-79
2023/09/17 02:27:58;;;;;;;5.22;4.18;;;20.90;82.30;;;;;;5015554;28;20052;-79
2023/09/17 02:30:24;;;;;;;4.47;4.07;;;20.80;83.50;;;;;;4998370;28;20027;-79
2023/09/17 02:32:50;;;;;;;5.63;4.72;;;20.90;83.60;;;;;;5016251;28;20041;-79
2023/09/17 02:35:15;;;;;;;2.88;2.65;;;21.00;83.90;;;;;;4998803;28;20104;-78
2023/09/17 02:37:41;;;;;;;7.65;6.50;;;21.10;84.10;;;;;;5015638;28;20359;-78
2023/09/17 02:40:09;;;;;;;7.20;6.50;;;21.10;83.60;;;;;;5015808;28;20030;-78
2023/09/17 02:42:36;;;;;;;11.27;7.90;;;20.90;83.70;;;;;;4998192;28;20042;-79
2023/09/17 02:45:03;;;;;;;6.68;5.30;;;20.70;84.10;;;;;;4998026;28;20029;-79
2023/09/17 02:47:28;;;;;;;6.78;6.07;;;20.50;84.90;;;;;;5016205;28;20030;-79
2023/09/17 02:49:54;;;;;;;5.25;4.75;;;20.60;84.80;;;;;;5015414;28;20029;-79
2023/09/17 02:52:20;;;;;;;5.95;4.78;;;20.50;84.60;;;;;;5015470;28;20029;-79
2023/09/17 02:54:46;;;;;;;9.20;7.10;;;20.50;85.10;;;;;;5016171;28;20202;-78
2023/09/17 02:57:11;;;;;;;6.63;4.75;;;20.50;84.10;;;;;;5015598;28;20037;-79
2023/09/17 02:59:37;;;;;;;9.32;6.60;;;20.40;84.60;;;;;;5015151;28;20137;-79
2023/09/17 03:02:03;;;;;;;5.88;4.90;;;20.40;85.50;;;;;;5014258;28;20033;-79
2023/09/17 03:04:30;;;;;;;6.20;5.35;;;20.30;86.00;;;;;;4997209;28;20389;-79
2023/09/17 03:06:56;;;;;;;7.00;5.10;;;20.40;86.50;;;;;;4998044;28;20462;-80
2023/09/17 03:09:22;;;;;;;5.55;3.90;;;20.40;86.80;;;;;;4997533;28;20034;-79
2023/09/17 03:11:47;;;;;;;6.13;4.15;;;20.40;87.40;;;;;;4998447;28;20041;-79
2023/09/17 03:14:13;;;;;;;3.63;3.30;;;20.60;87.40;;;;;;5016057;28;20088;-79
2023/09/17 03:16:39;;;;;;;6.47;5.65;;;20.60;86.80;;;;;;5016093;28;20033;-79
2023/09/17 03:19:04;;;;;;;6.43;5.32;;;20.50;86.30;;;;;;5002024;28;20090;-79
2023/09/17 03:21:30;;;;;;;4.20;3.50;;;20.30;87.30;;;;;;5000782;28;20128;-79
2023/09/17 03:23:56;;;;;;;6.60;5.50;;;20.30;87.50;;;;;;5018756;28;20419;-79
2023/09/17 03:26:22;;;;;;;6.85;5.57;;;20.40;87.40;;;;;;4999452;28;20080;-78
2023/09/17 03:28:48;;;;;;;7.35;4.60;;;20.30;87.60;;;;;;4998716;28;20172;-79
2023/09/17 03:31:13;;;;;;;3.90;3.50;;;20.20;88.10;;;;;;5014950;28;20084;-79
2023/09/17 03:33:39;;;;;;;4.57;3.40;;;20.10;88.50;;;;;;4997362;28;20065;-79
2023/09/17 03:36:05;;;;;;;2.53;2.33;;;20.10;88.90;;;;;;5015072;28;20109;-79
2023/09/17 03:38:30;;;;;;;3.80;3.15;;;20.30;89.10;;;;;;5014706;28;20026;-80
2023/09/17 03:40:59;;;;;;;3.60;3.30;;;20.40;88.80;;;;;;4998518;28;20061;-79
2023/09/17 03:43:27;;;;;;;3.13;2.78;;;20.50;88.30;;;;;;5015978;28;20038;-79
2023/09/17 03:45:53;;;;;;;4.95;4.45;;;20.60;88.50;;;;;;5016277;28;20105;-79
2023/09/17 03:48:20;;;;;;;4.00;3.40;;;20.70;88.10;;;;;;4998511;28;20039;-79
2023/09/17 03:50:46;;;;;;;6.70;4.10;;;20.70;87.60;;;;;;5015281;28;20047;-79
2023/09/17 03:53:13;;;;;;;7.65;5.47;;;20.70;87.80;;;;;;5015190;28;20022;-79
2023/09/17 03:55:39;;;;;;;2.60;2.40;;;20.70;87.90;;;;;;5014771;28;20073;-79
2023/09/17 03:58:05;;;;;;;4.10;3.03;;;20.70;88.20;;;;;;5015358;28;20026;-79
2023/09/17 04:00:31;;;;;;;3.97;3.58;;;20.80;88.20;;;;;;5014932;28;20521;-78
2023/09/17 04:02:57;;;;;;;4.95;3.55;;;20.90;87.90;;;;;;4980290;28;20034;-78
2023/09/17 04:05:24;;;;;;;5.18;4.47;;;20.90;87.80;;;;;;4996825;28;20030;-78
2023/09/17 04:07:49;;;;;;;4.30;3.90;;;21.00;88.00;;;;;;5015458;28;20030;-79
2023/09/17 04:10:17;;;;;;;4.20;3.80;;;20.90;88.00;;;;;;5000260;28;20029;-79
2023/09/17 04:12:43;;;;;;;2.75;2.55;;;20.90;88.20;;;;;;4998514;28;20061;-79
2023/09/17 04:15:18;;;;;;;6.60;6.00;;;21.00;88.20;;;;;;5013843;28;20528;-80
2023/09/17 04:17:45;;;;;;;5.60;4.93;;;21.10;88.00;;;;;;5013998;28;20038;-79
2023/09/17 04:20:14;;;;;;;4.50;3.90;;;21.10;87.90;;;;;;5013917;28;20038;-80
2023/09/17 04:22:43;;;;;;;3.67;3.33;;;21.00;88.20;;;;;;5013694;28;20034;-79
2023/09/17 04:25:10;;;;;;;3.88;3.05;;;21.00;88.30;;;;;;5014384;28;20034;-79
2023/09/17 04:27:43;;;;;;;3.28;2.95;;;21.10;88.30;;;;;;5019954;28;20054;-79
2023/09/17 04:30:10;;;;;;;3.88;3.13;;;21.20;88.30;;;;;;5016694;28;20037;-80
2023/09/17 04:32:37;;;;;;;5.40;4.50;;;21.20;88.30;;;;;;4996777;28;20034;-80
2023/09/17 04:35:07;;;;;;;5.30;4.78;;;21.30;88.60;;;;;;5017822;28;20029;-80
2023/09/17 04:37:37;;;;;;;2.85;2.55;;;21.20;88.90;;;;;;5016520;28;20030;-80
2023/09/17 04:40:08;;;;;;;4.82;4.15;;;21.20;89.00;;;;;;5016963;28;20041;-80
2023/09/17 04:42:35;;;;;;;3.83;3.10;;;21.20;89.20;;;;;;5020889;28;20112;-80
2023/09/17 04:45:04;;;;;;;4.40;4.00;;;21.20;89.40;;;;;;5019784;28;20042;-80
2023/09/17 04:47:30;;;;;;;6.70;4.50;;;21.20;89.40;;;;;;4984049;28;20044;-79
2023/09/17 04:49:56;;;;;;;3.65;3.35;;;21.10;89.80;;;;;;5015963;28;20051;-80
2023/09/17 04:52:23;;;;;;;3.65;3.13;;;21.10;89.80;;;;;;5016467;28;20050;-80
2023/09/17 04:54:49;;;;;;;9.20;6.88;;;21.20;89.60;;;;;;5016998;28;20037;-80
2023/09/17 04:57:14;;;;;;;5.68;4.57;;;21.20;89.70;;;;;;5015713;28;20443;-80
2023/09/17 04:59:40;;;;;;;4.60;3.85;;;21.20;90.00;;;;;;5015923;28;20069;-79
2023/09/17 05:02:06;;;;;;;4.88;3.47;;;21.20;90.00;;;;;;4997523;28;20042;-80
2023/09/17 05:04:32;;;;;;;3.45;3.05;;;21.10;89.80;;;;;;5016569;28;20045;-80
2023/09/17 05:06:58;;;;;;;5.38;4.40;;;21.20;89.70;;;;;;5016071;28;20114;-80
2023/09/17 05:09:25;;;;;;;6.75;6.05;;;21.30;90.00;;;;;;4999768;28;20393;-79
2023/09/17 05:11:51;;;;;;;11.23;6.72;;;21.20;90.10;;;;;;4998755;28;20042;-79
2023/09/17 05:14:17;;;;;;;6.90;5.35;;;21.00;90.60;;;;;;5014719;28;20140;-80
2023/09/17 05:16:43;;;;;;;3.97;3.50;;;20.90;90.80;;;;;;4998375;28;20026;-80
2023/09/17 05:19:08;;;;;;;9.13;7.45;;;20.90;90.70;;;;;;4997969;28;20076;-80
2023/09/17 05:21:34;;;;;;;6.25;5.65;;;20.80;91.00;;;;;;4998355;28;20121;-80
2023/09/17 05:24:00;;;;;;;7.68;5.15;;;20.80;90.90;;;;;;4997410;28;20060;-80
2023/09/17 05:26:25;;;;;;;4.95;4.45;;;20.70;91.10;;;;;;4997386;28;20061;-80
2023/09/17 05:28:51;;;;;;;5.85;5.30;;;20.70;91.10;;;;;;4997991;28;20038;-80
2023/09/17 05:31:17;;;;;;;3.50;3.20;;;20.70;91.10;;;;;;5016338;28;20083;-80
2023/09/17 05:33:43;;;;;;;3.50;2.70;;;20.80;91.10;;;;;;4997960;28;20026;-79
2023/09/17 05:36:09;;;;;;;6.22;4.82;;;20.90;90.80;;;;;;4998547;28;20458;-79
2023/09/17 05:38:34;;;;;;;7.25;5.90;;;21.10;90.80;;;;;;4997064;28;20026;-80
2023/09/17 05:41:01;;;;;;;6.90;6.20;;;21.20;90.70;;;;;;5014276;28;20117;-79
2023/09/17 05:43:26;;;;;;;4.85;4.43;;;21.10;90.80;;;;;;5014428;28;20026;-79
2023/09/17 05:45:56;;;;;;;4.43;4.00;;;21.00;90.90;;;;;;4995631;28;20038;-79
2023/09/17 05:48:22;;;;;;;6.45;5.18;;;21.00;90.90;;;;;;5013285;28;20160;-80
2023/09/17 05:50:57;;;;;;;7.13;6.43;;;20.90;91.30;;;;;;4995092;28;20037;-80
2023/09/17 05:53:23;;;;;;;5.20;4.30;;;20.80;91.40;;;;;;5013048;28;20060;-79
2023/09/17 05:55:49;;;;;;;8.00;7.10;;;20.80;91.40;;;;;;4995290;28;20026;-80
2023/09/17 05:58:15;;;;;;;5.43;4.65;;;20.90;91.50;;;;;;5016304;28;20104;-80
2023/09/17 06:00:41;;;;;;;4.97;4.47;;;20.60;91.80;;;;;;5016245;28;20060;-80
2023/09/17 06:03:06;;;;;;;4.88;4.07;;;20.60;91.90;;;;;;5014051;28;20030;-80
2023/09/17 06:05:32;;;;;;;6.72;5.85;;;20.70;91.80;;;;;;5015839;28;20030;-80
2023/09/17 06:07:58;;;;;;;4.45;4.05;;;20.60;91.90;;;;;;4997276;28;20041;-80
2023/09/17 06:10:23;;;;;;;7.53;6.13;;;20.60;92.10;;;;;;5014844;28;20026;-79
2023/09/17 06:12:49;;;;;;;4.50;3.17;;;20.60;92.20;;;;;;5014503;28;20026;-79
2023/09/17 06:15:15;;;;;;;3.50;3.20;;;20.60;92.10;;;;;;5015411;28;20034;-79
2023/09/17 06:17:41;;;;;;;4.72;4.32;;;20.70;91.90;;;;;;5014118;28;20034;-80
2023/09/17 06:20:08;;;;;;;8.00;7.20;;;20.80;91.70;;;;;;4996428;28;20072;-79
2023/09/17 06:22:34;;;;;;;7.93;6.47;;;20.80;91.90;;;;;;4994986;28;20042;-79
2023/09/17 06:24:59;;;;;;;5.80;5.30;;;20.60;92.10;;;;;;4995386;28;20033;-79
2023/09/17 06:27:25;;;;;;;3.35;3.05;;;20.50;92.40;;;;;;5012354;28;20061;-79
2023/09/17 06:29:51;;;;;;;5.30;4.07;;;20.40;92.30;;;;;;4979152;28;20041;-79
2023/09/17 06:32:17;;;;;;;4.72;4.03;;;20.50;92.40;;;;;;4994834;28;20168;-80
2023/09/17 06:34:43;;;;;;;5.78;5.28;;;20.50;92.30;;;;;;4980792;28;20030;-80
2023/09/17 06:37:08;;;;;;;3.92;3.28;;;20.40;92.30;;;;;;4982444;28;20483;-79
2023/09/17 06:39:35;;;;;;;5.32;4.43;;;20.30;92.50;;;;;;5017836;28;20410;-79
2023/09/17 06:42:01;;;;;;;3.10;2.80;;;20.30;92.50;;;;;;5018777;28;20038;-79
2023/09/17 06:44:26;;;;;;;4.20;2.95;;;20.40;92.40;;;;;;5002120;28;20443;-79
2023/09/17 06:46:52;;;;;;;2.88;2.47;;;20.60;92.20;;;;;;5020492;28;20323;-79
2023/09/17 06:49:18;;;;;;;2.80;2.60;;;20.80;92.00;;;;;;5019063;28;20034;-78
2023/09/17 06:51:44;;;;;;;5.20;4.00;;;20.90;91.70;;;;;;5000919;28;20037;-79
2023/09/17 06:54:10;;;;;;;3.45;3.08;;;20.90;91.40;;;;;;5018678;28;20190;-79
2023/09/17 06:56:36;;;;;;;4.00;3.50;;;20.80;91.60;;;;;;4999338;28;20463;-79
2023/09/17 06:59:02;;;;;;;9.48;5.07;;;20.60;91.70;;;;;;5016889;28;20058;-79
2023/09/17 07:01:28;;;;;;;3.90;3.30;;;20.40;91.80;;;;;;4985760;28;20128;-79
2023/09/17 07:03:53;;;;;;;2.78;2.33;;;20.20;92.10;;;;;;5020532;28;20042;-78
2023/09/17 07:06:20;;;;;;;3.70;2.97;;;20.40;92.20;;;;;;5019350;28;20037;-79
2023/09/17 07:08:46;;;;;;;4.55;3.22;;;20.50;92.00;;;;;;5002057;28;20036;-80
2023/09/17 07:11:12;;;;;;;6.10;4.07;;;20.70;91.90;;;;;;5020474;28;20125;-79
2023/09/17 07:13:39;;;;;;;4.75;3.08;;;20.80;91.70;;;;;;5020988;28;20064;-80
2023/09/17 07:16:05;;;;;;;4.72;3.13;;;20.90;91.50;;;;;;5020331;28;20054;-79
2023/09/17 07:18:31;;;;;;;4.15;3.05;;;21.00;91.40;;;;;;5002557;28;20045;-79
2023/09/17 07:20:57;;;;;;;3.42;2.35;;;21.00;91.40;;;;;;5002611;28;20069;-80
2023/09/17 07:23:23;;;;;;;3.00;2.20;;;21.00;91.30;;;;;;5002015;28;20030;-80
2023/09/17 07:25:50;;;;;;;3.22;2.50;;;21.10;91.20;;;;;;5001351;28;20026;-79
2023/09/17 07:28:16;;;;;;;2.50;2.00;;;21.20;91.20;;;;;;4999627;28;20034;-80
2023/09/17 07:30:42;;;;;;;3.60;2.88;;;21.20;91.10;;;;;;5016338;28;20066;-79
2023/09/17 07:33:07;;;;;;;2.40;2.20;;;21.30;91.00;;;;;;5016484;28;20034;-80
2023/09/17 07:35:34;;;;;;;2.85;2.10;;;21.40;90.90;;;;;;4998443;28;20042;-80
2023/09/17 07:38:00;;;;;;;3.15;2.78;;;21.50;90.80;;;;;;5015583;28;20113;-79
2023/09/17 07:40:26;;;;;;;2.92;2.63;;;21.50;90.60;;;;;;5015446;28;20068;-79
2023/09/17 07:42:52;;;;;;;3.90;3.45;;;21.50;90.60;;;;;;5014616;28;20030;-79
2023/09/17 07:45:18;;;;;;;3.63;2.40;;;21.50;90.60;;;;;;4997395;28;20116;-80
2023/09/17 07:47:44;;;;;;;3.38;2.10;;;21.50;90.60;;;;;;5015255;28;20049;-80
2023/09/17 07:50:10;;;;;;;5.18;3.25;;;21.60;90.50;;;;;;5014400;28;20025;-80
2023/09/17 07:52:36;;;;;;;2.97;2.75;;;21.70;90.30;;;;;;5015268;28;20463;-79
2023/09/17 07:55:01;;;;;;;5.55;4.38;;;21.60;90.30;;;;;;5014512;28;20071;-79
2023/09/17 07:57:27;;;;;;;4.15;3.53;;;21.50;90.30;;;;;;4996516;28;20041;-79
2023/09/17 07:59:53;;;;;;;3.53;2.67;;;21.50;90.40;;;;;;4996935;28;20557;-79
2023/09/17 08:02:19;;;;;;;4.47;2.65;;;21.40;90.40;;;;;;4996779;28;20041;-79
2023/09/17 08:04:44;;;;;;;4.28;2.40;;;21.40;90.40;;;;;;5014238;28;20065;-79
2023/09/17 08:07:11;;;;;;;2.55;2.13;;;21.40;90.50;;;;;;5014680;28;20481;-79
2023/09/17 08:09:38;;;;;;;8.30;5.30;;;21.40;90.50;;;;;;5014290;28;20113;-79
2023/09/17 08:12:05;;;;;;;6.07;5.15;;;21.40;90.40;;;;;;5014631;28;20037;-78
2023/09/17 08:14:33;;;;;;;3.50;3.20;;;21.30;90.60;;;;;;5015200;28;20038;-79
2023/09/17 08:16:58;;;;;;;3.40;3.10;;;21.20;90.80;;;;;;5015319;28;20149;-79
2023/09/17 08:19:24;;;;;;;4.45;3.60;;;21.20;90.90;;;;;;4998150;28;20046;-79
2023/09/17 08:21:50;;;;;;;5.15;4.43;;;21.10;91.00;;;;;;5015106;28;20386;-79
2023/09/17 08:24:17;;;;;;;5.05;3.95;;;21.00;91.20;;;;;;4996197;28;20030;-79
2023/09/17 08:26:43;;;;;;;5.55;5.03;;;21.00;91.30;;;;;;5014729;28;20030;-80
2023/09/17 08:29:09;;;;;;;5.43;3.70;;;21.00;91.40;;;;;;4980683;28;20398;-80
2023/09/17 08:31:35;;;;;;;6.25;4.88;;;21.10;91.20;;;;;;5014004;28;20104;-80
2023/09/17 08:34:03;;;;;;;9.85;7.15;;;21.10;91.40;;;;;;4996738;28;20446;-80
2023/09/17 08:36:29;;;;;;;8.70;7.28;;;21.00;91.50;;;;;;4996170;28;20065;-79
2023/09/17 08:38:55;;;;;;;5.93;4.93;;;20.90;91.70;;;;;;5013511;28;20030;-78
2023/09/17 08:41:22;;;;;;;6.32;5.70;;;20.80;91.90;;;;;;5013157;28;20049;-79
2023/09/17 08:43:53;;;;;;;4.68;4.18;;;20.80;92.00;;;;;;5013567;28;20030;-79
2023/09/17 08:46:20;;;;;;;4.90;4.32;;;20.80;92.10;;;;;;5014211;28;20091;-79
2023/09/17 08:48:46;;;;;;;7.63;5.60;;;20.90;92.00;;;;;;5014187;28;20514;-79
2023/09/17 08:51:15;;;;;;;11.68;8.02;;;20.90;92.10;;;;;;5013334;28;20045;-78
2023/09/17 08:53:50;;;;;;;7.68;6.88;;;20.80;92.30;;;;;;5013060;28;20036;-79
2023/09/17 08:56:17;;;;;;;9.95;8.45;;;20.70;92.50;;;;;;5013754;28;20062;-78
2023/09/17 08:58:52;;;;;;;11.35;9.27;;;20.60;92.80;;;;;;5013666;28;20490;-79
2023/09/17 09:01:20;;;;;;;11.68;9.70;;;20.50;93.10;;;;;;5014011;28;20457;-79
2023/09/17 09:03:47;;;;;;;11.20;10.10;;;20.40;93.20;;;;;;5013371;28;20050;-79
2023/09/17 09:06:15;;;;;;;9.07;7.47;;;20.30;93.50;;;;;;4979437;28;20184;-78
2023/09/17 09:08:42;;;;;;;13.63;10.88;;;20.30;93.60;;;;;;5012885;28;20471;-78
2023/09/17 09:11:08;;;;;;;6.10;5.45;;;20.30;93.80;;;;;;5013380;28;20072;-78
2023/09/17 09:13:37;;;;;;;5.30;4.57;;;20.40;93.70;;;;;;5013114;28;20045;-78
2023/09/17 09:16:03;;;;;;;4.90;3.60;;;20.50;93.50;;;;;;5012958;28;20485;-78
2023/09/17 09:18:29;;;;;;;6.40;5.43;;;20.70;93.30;;;;;;4995316;28;20034;-79
2023/09/17 09:20:55;;;;;;;6.47;5.80;;;20.80;93.10;;;;;;5013182;28;20034;-78
2023/09/17 09:23:22;;;;;;;6.72;4.93;;;20.90;93.00;;;;;;5013342;28;20121;-79
2023/09/17 09:25:48;;;;;;;11.75;10.48;;;20.90;93.00;;;;;;5013529;28;20068;-79
2023/09/17 09:28:14;;;;;;;9.50;8.05;;;20.90;93.20;;;;;;5011406;28;20026;-78
2023/09/17 09:30:42;;;;;;;10.30;8.60;;;20.80;93.40;;;;;;5013151;28;20030;-78
2023/09/17 09:33:08;;;;;;;8.23;6.65;;;20.80;93.40;;;;;;5013018;28;20030;-78
2023/09/17 09:35:34;;;;;;;8.95;7.72;;;20.90;93.30;;;;;;5013282;28;20083;-79
2023/09/17 09:38:01;;;;;;;9.80;8.80;;;21.00;93.20;;;;;;4995355;28;20120;-78
2023/09/17 09:40:27;;;;;;;9.73;8.77;;;20.90;93.20;;;;;;5012996;28;20056;-80
2023/09/17 09:42:53;;;;;;;10.05;6.93;;;20.90;93.50;;;;;;5012982;28;20034;-80
2023/09/17 09:45:19;;;;;;;5.43;4.78;;;20.80;93.50;;;;;;4979137;28;20462;-80
2023/09/17 09:47:51;;;;;;;6.07;4.88;;;20.90;93.40;;;;;;5012782;28;20030;-80
2023/09/17 09:50:27;;;;;;;14.05;11.10;;;21.00;93.30;;;;;;5012853;28;20030;-80
2023/09/17 09:52:54;;;;;;;7.82;6.75;;;21.10;93.40;;;;;;5013137;28;20136;-80
2023/09/17 09:55:24;;;;;;;8.05;7.22;;;21.10;93.50;;;;;;4995168;28;20080;-80
2023/09/17 09:57:51;;;;;;;5.32;4.28;;;21.20;93.40;;;;;;4995366;28;20030;-80
2023/09/17 10:00:26;;;;;;;9.90;8.80;;;21.20;93.10;;;;;;4995084;28;20383;-80
2023/09/17 10:02:52;;;;;;;7.32;6.32;;;21.20;93.30;;;;;;5013567;28;20415;-80
2023/09/17 10:05:31;;;;;;;15.13;11.88;;;21.30;93.30;;;;;;4995582;28;20030;-80
2023/09/17 10:07:57;;;;;;;11.60;10.45;;;21.20;93.50;;;;;;4995005;28;20033;-80
2023/09/17 10:10:23;;;;;;;14.55;12.43;;;21.00;93.80;;;;;;4995122;28;20030;-80
2023/09/17 10:12:52;;;;;;;9.77;7.97;;;20.80;94.30;;;;;;4997113;28;20030;-80
2023/09/17 10:15:18;;;;;;;10.88;9.07;;;20.70;94.50;;;;;;4999065;28;20030;-80
2023/09/17 10:17:46;;;;;;;10.05;8.73;;;20.80;94.50;;;;;;5016153;28;20040;-80
2023/09/17 10:20:12;;;;;;;12.82;11.40;;;20.90;94.40;;;;;;5016312;28;20026;-79
2023/09/17 10:22:40;;;;;;;15.52;12.57;;;21.00;94.30;;;;;;5016080;28;20034;-79
2023/09/17 10:25:08;;;;;;;10.88;8.82;;;21.00;94.40;;;;;;5016216;28;20037;-79
2023/09/17 10:27:37;;;;;;;18.48;12.98;;;21.00;94.50;;;;;;5014872;28;20144;-79
2023/09/17 10:30:04;;;;;;;19.48;14.48;;;21.00;94.70;;;;;;5016142;28;20119;-79
2023/09/17 10:32:35;;;;;;;17.85;13.73;;;21.10;94.50;;;;;;5016294;28;20042;-79
2023/09/17 10:35:02;;;;;;;16.23;11.60;;;21.10;94.40;;;;;;5019045;28;20112;-79
2023/09/17 10:37:31;;;;;;;20.13;14.15;;;21.20;94.50;;;;;;5017523;28;20081;-80
2023/09/17 10:39:57;;;;;;;13.98;9.98;;;21.20;94.50;;;;;;4998435;28;20076;-81
2023/09/17 10:42:25;;;;;;;16.98;13.90;;;21.10;95.00;;;;;;5015922;28;20030;-81
2023/09/17 10:44:55;;;;;;;21.27;14.57;;;21.10;95.10;;;;;;4982281;28;20026;-81
2023/09/17 10:47:21;;;;;;;16.10;12.40;;;21.20;95.10;;;;;;5015597;28;20044;-81
2023/09/17 10:49:47;;;;;;;20.63;15.52;;;21.20;95.20;;;;;;4981997;28;20030;-80
2023/09/17 10:52:13;;;;;;;24.70;17.60;;;21.20;94.90;;;;;;4998321;28;20129;-80
2023/09/17 10:54:39;;;;;;;17.45;12.73;;;21.30;95.10;;;;;;4998044;28;20030;-79
2023/09/17 10:57:27;;;;;;;14.65;9.65;;;21.30;94.90;;;;;;5014883;28;20034;-81
2023/09/17 10:59:55;;;;;;;19.80;12.43;;;21.40;94.60;;;;;;5015580;28;20054;-80
2023/09/17 11:02:23;;;;;;;14.27;10.00;;;21.40;94.60;;;;;;4997534;28;20050;-80
2023/09/17 11:04:50;;;;;;;17.10;11.40;;;21.50;94.50;;;;;;5015667;28;20084;-81
2023/09/17 11:07:17;;;;;;;14.82;9.90;;;21.60;94.40;;;;;;4997604;28;20363;-78
2023/09/17 11:09:45;;;;;;;23.45;17.25;;;21.60;94.50;;;;;;4997251;28;20364;-79
2023/09/17 11:12:11;;;;;;;13.05;9.35;;;21.60;94.40;;;;;;4997442;28;20042;-79
2023/09/17 11:14:37;;;;;;;10.85;6.40;;;21.70;94.40;;;;;;4997184;28;20029;-79
2023/09/17 11:17:04;;;;;;;5.03;4.43;;;21.70;94.40;;;;;;5015198;28;20017;-80
2023/09/17 11:19:30;;;;;;;14.80;10.00;;;21.80;94.10;;;;;;4997418;28;20568;-80
2023/09/17 11:22:01;;;;;;;17.25;13.15;;;21.90;94.30;;;;;;4997476;28;20249;-79
2023/09/17 11:24:27;;;;;;;12.75;10.15;;;22.00;94.40;;;;;;5014115;28;20029;-78
2023/09/17 11:26:57;;;;;;;20.17;14.38;;;22.00;94.40;;;;;;5014782;28;20034;-79
2023/09/17 11:29:36;;;;;;;15.02;11.27;;;22.10;94.20;;;;;;4996982;28;20041;-79
2023/09/17 11:32:03;;;;;;;13.30;9.75;;;22.20;94.00;;;;;;5014822;28;20095;-79
2023/09/17 11:34:30;;;;;;;15.38;11.57;;;22.20;94.00;;;;;;4981310;28;20037;-79
2023/09/17 11:36:57;;;;;;;9.13;7.55;;;22.30;93.80;;;;;;5014453;28;20026;-79
2023/09/17 11:39:24;;;;;;;15.02;11.25;;;22.30;93.60;;;;;;5014618;28;20036;-79
2023/09/17 11:42:00;;;;;;;18.48;13.75;;;22.40;93.60;;;;;;4997113;28;20037;-79
2023/09/17 11:44:26;;;;;;;14.95;12.13;;;22.40;93.70;;;;;;4999037;28;20030;-79
2023/09/17 11:46:51;;;;;;;12.93;10.27;;;22.50;93.50;;;;;;5014877;28;20100;-79
2023/09/17 11:49:18;;;;;;;11.75;8.10;;;22.60;93.40;;;;;;5014472;28;20112;-79
2023/09/17 11:51:45;;;;;;;9.00;6.88;;;22.60;93.20;;;;;;4996870;28;20034;-79
2023/09/17 11:54:25;;;;;;;14.23;9.73;;;22.60;93.00;;;;;;5014516;28;20026;-79
2023/09/17 11:56:53;;;;;;;10.68;8.40;;;22.60;93.00;;;;;;5014196;28;20582;-79
2023/09/17 11:59:24;;;;;;;10.52;8.13;;;22.60;93.00;;;;;;5014401;28;20152;-79
2023/09/17 12:01:52;;;;;;;11.55;9.23;;;22.60;93.20;;;;;;5014709;28;20046;-79
2023/09/17 12:04:20;;;;;;;15.63;11.35;;;22.60;93.10;;;;;;5014148;28;20087;-79
2023/09/17 12:06:50;;;;;;;17.05;14.95;;;22.60;93.40;;;;;;5014274;28;20100;-78
2023/09/17 12:09:31;;;;;;;11.82;9.95;;;22.50;94.20;;;;;;5014756;28;20026;-79
2023/09/17 12:11:57;;;;;;;13.60;11.27;;;22.40;94.10;;;;;;5014527;28;20510;-79
2023/09/17 12:14:24;;;;;;;10.15;7.15;;;22.40;94.00;;;;;;5013837;28;20030;-79
2023/09/17 12:16:51;;;;;;;10.75;8.38;;;22.40;93.90;;;;;;4996617;28;20030;-79
2023/09/17 12:19:17;;;;;;;8.00;7.03;;;22.50;93.50;;;;;;5014420;28;20101;-79
2023/09/17 12:21:50;;;;;;;11.45;7.40;;;22.50;93.40;;;;;;5013735;28;20038;-79
2023/09/17 12:24:35;;;;;;;12.35;9.13;;;22.50;93.40;;;;;;5014135;28;20030;-79
2023/09/17 12:29:47;;;;;;;21.38;14.98;;;22.50;93.40;;;;;;4996271;28;20030;-77
2023/09/17 12:32:19;;;;;;;10.05;7.22;;;22.60;93.40;;;;;;4996113;28;20049;-78
2023/09/17 12:34:46;;;;;;;10.05;6.75;;;22.60;93.50;;;;;;5013904;28;20086;-79
2023/09/17 12:37:12;;;;;;;10.05;8.10;;;22.60;93.30;;;;;;5013381;28;20498;-78
2023/09/17 12:39:42;;;;;;;17.15;10.82;;;22.70;93.40;;;;;;4995962;28;20038;-80
2023/09/17 12:42:08;;;;;;;9.43;6.93;;;22.70;93.30;;;;;;5014064;28;20069;-80
2023/09/17 12:44:34;;;;;;;16.20;13.75;;;22.80;93.30;;;;;;4996168;28;20486;-80